Pagina principale
METAR-TAF:

METAR-TAF

Aeroporti :

Aeroporto di Tunisi-Cartagine

Tunisi, Tunisia

latitudine: 36-50N, longitudine: 010-14E, altezza: 3 m

Osservazione

Il bollettino è stato emesso 37 minuti fa, alle 12:30 UTC
Vento 10 kt da ovest/sud-ovest, variando fra sud/sud-ovest e ovest
Temperature 18°C
Umidità 45%
Pressione 1022 hPa
Visibilità 10 km o più
Poco nuvoloso ad un'altezza di 3300 ft

METAR: DTTA 281230Z 24010KT 210V270 9999 FEW033 18/06 Q1022

Ora: 14:07 (13:07 UTC)

Previsione

Il bollettino è stato emesso 2 ore e 7 minuti fa, alle 11:00 UTC
Previsione valida dal 28 alle 12 UTC al 29 alle 12 UTC
Vento 10 kt da ovest/sud-ovest
Visibilità 10 km o più
Poco nuvoloso ad un'altezza di 3300 ft
Evoluzione graduale
dal 28 alle 20 UTC al 28 alle 22 UTC
Vento 5 kt da sud/sud-ovest
Evoluzione graduale
dal 29 alle 06 UTC al 29 alle 08 UTC
Vento 12 kt da sud/sud-ovest

TAF: DTTA 281100Z 2812/2912 24010KT 9999 FEW033 BECMG 2820/2822 21005KT BECMG 2906/2908 21012KT

Osservazioni e previsioni meteorologiche di più di 4000 aeroporti (messaggi METAR e TAF).

Le stazioni disponibili sono rappresentate dai dischi gialli e rossi sulla carta.

Puntare il mouse per vedere il nome della stazione.

Clicca sopra per visualizzare le osservazioni e previsioni meteorologiche.

Per cambiare la mappa : fare clic sui pulsanti verdi con una croce nera per ingrandire, il pulsante verde con un trattino per diminuire, o sulla freccia verde per le mappe adiacenti.


METAR-TAF: